Portada
METAR-TAF:

METAR-TAF

Aeroports :

Brunei, Brunei

latitud: 04-56N, longitud: 114-56E, altitud: 22 m

Observació

L'informe es va fer fa 22 minuts, a les 19:00 UTC
Vent 2 kt del Oest/Sud-Oest
Temperatura 26°C
Humitat 89%
Pressió 1009 hPa
Visibilitat 10 km o més
Núvols disperses a una alçada de 1400 ft
Cel ennuvolat a una alçada de 28000 ft

METAR: WBSB 211900Z 25002KT 9999 SCT014 BKN280 26/24 Q1009 NOSIG

Hora: 03:22 (19:22 UTC)

Pronòstic

L'informe es va fer fa 2 hores i 22 minuts, a les 17:00 UTC
Pronòstic vàlid del 21 a les 18 UTC al 23 a les 00 UTC
Vent 3 kt del Sud/Sud-Oest
Visibilitat 10 km o més
Escasses núvols a una alçada de 1400 ft
Escasses núvols a una alçada de 1500 ft, Cumulonimbus.
Evolucionant progressivament
l' 22 a les 03 UTC al 22 a les 05 UTC
Vent 10 kt del Nord/Nord-Oest
Núvols disperses a una alçada de 1600 ft
Escasses núvols a una alçada de 1700 ft, Cumulonimbus.

TAF: WBSB 211700Z 2118/2300 20003KT 9999 FEW014 FEW015CB BECMG 2203/2205 33010KT SCT016 FEW017CB

Observacions i pronòstics meteorològics de més de 4000 aeroports (METAR i TAF).

Les estacions disponibles són els punts grocs i vermells al mapa.

Posi el ratolí al punt desitjat per veure el nom de l'estació.

Feu clic per veure les observacions i els pronòstics meteorològics.

Per canviar el mapa: feu clic els botons verds amb una creu de color negre per apropar; al botó verd amb un guió per allunyar la imatge; o en les fletxes verdes per a mapes adjacents.


METAR-TAF: